sensor_id;sensor_type;location;lat;lon;timestamp;pressure;altitude;pressure_sealevel;temperature;humidity
71504;BME280;59323;50.874;7.028;2023-04-15T00:02:25;100342.44;;;6.17;77.87
71504;BME280;59323;50.874;7.028;2023-04-15T00:04:50;100342.09;;;6.18;78.16
71504;BME280;59323;50.874;7.028;2023-04-15T00:07:15;100336.84;;;6.10;78.87
71504;BME280;59323;50.874;7.028;2023-04-15T00:09:42;100346.50;;;6.11;78.69
71504;BME280;59323;50.874;7.028;2023-04-15T00:12:09;100341.69;;;6.04;78.39
71504;BME280;59323;50.874;7.028;2023-04-15T00:14:35;100331.50;;;5.97;79.34
71504;BME280;59323;50.874;7.028;2023-04-15T00:17:03;100342.38;;;6.01;79.33
71504;BME280;59323;50.874;7.028;2023-04-15T00:19:29;100336.00;;;5.93;79.21
71504;BME280;59323;50.874;7.028;2023-04-15T00:21:55;100334.09;;;5.94;79.97
71504;BME280;59323;50.874;7.028;2023-04-15T00:24:20;100331.16;;;5.87;79.47
71504;BME280;59323;50.874;7.028;2023-04-15T00:26:46;100325.19;;;5.81;79.49
71504;BME280;59323;50.874;7.028;2023-04-15T00:29:11;100337.22;;;5.84;80.17
71504;BME280;59323;50.874;7.028;2023-04-15T00:31:40;100339.81;;;5.80;79.95
71504;BME280;59323;50.874;7.028;2023-04-15T00:34:06;100343.53;;;5.76;80.06
71504;BME280;59323;50.874;7.028;2023-04-15T00:36:31;100352.41;;;5.76;79.69
71504;BME280;59323;50.874;7.028;2023-04-15T00:38:58;100337.59;;;5.70;80.71
71504;BME280;59323;50.874;7.028;2023-04-15T00:41:23;100345.34;;;5.71;79.90
71504;BME280;59323;50.874;7.028;2023-04-15T00:43:49;100344.00;;;5.65;80.58
71504;BME280;59323;50.874;7.028;2023-04-15T00:46:16;100343.31;;;5.68;80.52
71504;BME280;59323;50.874;7.028;2023-04-15T00:48:43;100340.88;;;5.63;80.97
71504;BME280;59323;50.874;7.028;2023-04-15T00:51:09;100344.34;;;5.64;81.44
71504;BME280;59323;50.874;7.028;2023-04-15T00:53:35;100344.13;;;5.57;81.35
71504;BME280;59323;50.874;7.028;2023-04-15T00:56:00;100338.50;;;5.62;80.86
71504;BME280;59323;50.874;7.028;2023-04-15T00:58:25;100342.13;;;5.54;81.15
71504;BME280;59323;50.874;7.028;2023-04-15T01:00:53;100343.34;;;5.56;81.47
71504;BME280;59323;50.874;7.028;2023-04-15T01:03:19;100341.69;;;5.52;81.19
71504;BME280;59323;50.874;7.028;2023-04-15T01:05:45;100345.94;;;5.53;81.01
71504;BME280;59323;50.874;7.028;2023-04-15T01:08:10;100338.88;;;5.48;80.92
71504;BME280;59323;50.874;7.028;2023-04-15T01:10:36;100347.41;;;5.50;81.30
71504;BME280;59323;50.874;7.028;2023-04-15T01:13:02;100343.13;;;5.49;82.05
71504;BME280;59323;50.874;7.028;2023-04-15T01:15:28;100342.59;;;5.44;81.29
71504;BME280;59323;50.874;7.028;2023-04-15T01:17:53;100354.94;;;5.45;81.75
71504;BME280;59323;50.874;7.028;2023-04-15T01:20:19;100339.09;;;5.43;81.60
71504;BME280;59323;50.874;7.028;2023-04-15T01:22:44;100332.03;;;5.38;82.49
71504;BME280;59323;50.874;7.028;2023-04-15T01:25:14;100332.03;;;5.38;82.24
71504;BME280;59323;50.874;7.028;2023-04-15T01:27:44;100335.41;;;5.35;81.50
71504;BME280;59323;50.874;7.028;2023-04-15T01:30:10;100330.25;;;5.30;82.27
71504;BME280;59323;50.874;7.028;2023-04-15T01:32:36;100341.47;;;5.32;81.91
71504;BME280;59323;50.874;7.028;2023-04-15T01:35:01;100340.13;;;5.26;82.42
71504;BME280;59323;50.874;7.028;2023-04-15T01:37:27;100345.97;;;5.28;82.24
71504;BME280;59323;50.874;7.028;2023-04-15T01:39:55;100334.50;;;5.19;82.35
71504;BME280;59323;50.874;7.028;2023-04-15T01:42:22;100336.41;;;5.19;82.85
71504;BME280;59323;50.874;7.028;2023-04-15T01:44:47;100337.88;;;5.16;82.31
71504;BME280;59323;50.874;7.028;2023-04-15T01:47:12;100332.03;;;5.14;82.46
71504;BME280;59323;50.874;7.028;2023-04-15T01:49:38;100336.31;;;5.15;82.58
71504;BME280;59323;50.874;7.028;2023-04-15T01:52:04;100333.94;;;5.14;82.79
71504;BME280;59323;50.874;7.028;2023-04-15T01:54:29;100337.66;;;5.09;83.42
71504;BME280;59323;50.874;7.028;2023-04-15T01:56:54;100332.81;;;5.02;83.35
71504;BME280;59323;50.874;7.028;2023-04-15T01:59:21;100329.22;;;4.98;83.41
71504;BME280;59323;50.874;7.028;2023-04-15T02:01:47;100335.97;;;5.04;83.40
71504;BME280;59323;50.874;7.028;2023-04-15T02:04:13;100333.50;;;4.99;83.73
71504;BME280;59323;50.874;7.028;2023-04-15T02:06:43;100328.22;;;5.03;82.93
71504;BME280;59323;50.874;7.028;2023-04-15T02:09:09;100323.50;;;5.00;83.49
71504;BME280;59323;50.874;7.028;2023-04-15T02:11:35;100326.53;;;4.98;83.43
71504;BME280;59323;50.874;7.028;2023-04-15T02:14:02;100332.03;;;5.02;83.50
71504;BME280;59323;50.874;7.028;2023-04-15T02:16:29;100331.94;;;4.98;83.34
71504;BME280;59323;50.874;7.028;2023-04-15T02:18:54;100325.53;;;5.03;83.18
71504;BME280;59323;50.874;7.028;2023-04-15T02:21:20;100341.81;;;5.06;83.69
71504;BME280;59323;50.874;7.028;2023-04-15T02:23:45;100325.41;;;4.99;83.84
71504;BME280;59323;50.874;7.028;2023-04-15T02:26:12;100339.78;;;5.03;83.02
71504;BME280;59323;50.874;7.028;2023-04-15T02:28:38;100338.00;;;4.95;83.70
71504;BME280;59323;50.874;7.028;2023-04-15T02:31:06;100342.81;;;5.02;83.67
71504;BME280;59323;50.874;7.028;2023-04-15T02:33:32;100341.34;;;5.04;83.85
71504;BME280;59323;50.874;7.028;2023-04-15T02:35:58;100334.63;;;4.98;84.28
71504;BME280;59323;50.874;7.028;2023-04-15T02:38:23;100337.31;;;4.98;83.40
71504;BME280;59323;50.874;7.028;2023-04-15T02:40:49;100334.06;;;4.93;83.29
71504;BME280;59323;50.874;7.028;2023-04-15T02:43:15;100343.25;;;4.92;83.93
71504;BME280;59323;50.874;7.028;2023-04-15T02:45:42;100347.19;;;4.94;83.82
71504;BME280;59323;50.874;7.028;2023-04-15T02:48:07;100353.25;;;4.91;83.86
71504;BME280;59323;50.874;7.028;2023-04-15T02:50:33;100360.66;;;4.94;83.58
71504;BME280;59323;50.874;7.028;2023-04-15T02:52:58;100358.63;;;4.91;84.04
71504;BME280;59323;50.874;7.028;2023-04-15T02:55:25;100349.97;;;4.86;83.63
71504;BME280;59323;50.874;7.028;2023-04-15T02:57:51;100362.44;;;4.90;84.56
71504;BME280;59323;50.874;7.028;2023-04-15T03:00:16;100362.66;;;4.85;84.42
71504;BME280;59323;50.874;7.028;2023-04-15T03:02:42;100352.91;;;4.81;84.67
71504;BME280;59323;50.874;7.028;2023-04-15T03:05:12;100364.91;;;4.83;84.19
71504;BME280;59323;50.874;7.028;2023-04-15T03:07:38;100362.88;;;4.80;84.59
71504;BME280;59323;50.874;7.028;2023-04-15T03:10:06;100364.00;;;4.79;83.94
71504;BME280;59323;50.874;7.028;2023-04-15T03:12:31;100366.03;;;4.82;83.76
71504;BME280;59323;50.874;7.028;2023-04-15T03:14:57;100364.56;;;4.85;84.57
71504;BME280;59323;50.874;7.028;2023-04-15T03:17:22;100357.03;;;4.78;84.50
71504;BME280;59323;50.874;7.028;2023-04-15T03:19:47;100356.59;;;4.76;84.62
71504;BME280;59323;50.874;7.028;2023-04-15T03:22:13;100368.25;;;4.80;84.59
71504;BME280;59323;50.874;7.028;2023-04-15T03:24:38;100364.34;;;4.77;84.44
71504;BME280;59323;50.874;7.028;2023-04-15T03:27:03;100360.63;;;4.70;84.04
71504;BME280;59323;50.874;7.028;2023-04-15T03:29:30;100359.84;;;4.69;84.48
71504;BME280;59323;50.874;7.028;2023-04-15T03:31:55;100369.16;;;4.72;84.14
71504;BME280;59323;50.874;7.028;2023-04-15T03:34:21;100378.34;;;4.71;84.78
71504;BME280;59323;50.874;7.028;2023-04-15T03:36:46;100374.06;;;4.70;84.66
71504;BME280;59323;50.874;7.028;2023-04-15T03:39:12;100373.16;;;4.66;84.93
71504;BME280;59323;50.874;7.028;2023-04-15T03:41:37;100378.22;;;4.67;84.20
71504;BME280;59323;50.874;7.028;2023-04-15T03:44:03;100381.13;;;4.62;84.78
71504;BME280;59323;50.874;7.028;2023-04-15T03:46:28;100378.31;;;4.59;85.44
71504;BME280;59323;50.874;7.028;2023-04-15T03:48:56;100389.97;;;4.63;84.87
71504;BME280;59323;50.874;7.028;2023-04-15T03:51:21;100394.44;;;4.59;85.52
71504;BME280;59323;50.874;7.028;2023-04-15T03:53:47;100375.00;;;4.53;85.37
71504;BME280;59323;50.874;7.028;2023-04-15T03:56:12;100377.91;;;4.48;86.09
71504;BME280;59323;50.874;7.028;2023-04-15T03:58:37;100390.25;;;4.49;86.02
71504;BME280;59323;50.874;7.028;2023-04-15T04:01:03;100392.59;;;4.51;85.72
71504;BME280;59323;50.874;7.028;2023-04-15T04:03:28;100395.28;;;4.51;85.43
71504;BME280;59323;50.874;7.028;2023-04-15T04:05:53;100392.34;;;4.43;85.56
71504;BME280;59323;50.874;7.028;2023-04-15T04:08:19;100389.66;;;4.43;85.46
71504;BME280;59323;50.874;7.028;2023-04-15T04:10:45;100390.13;;;4.45;85.06
71504;BME280;59323;50.874;7.028;2023-04-15T04:13:11;100391.69;;;4.46;85.29
71504;BME280;59323;50.874;7.028;2023-04-15T04:15:36;100392.03;;;4.45;85.40
71504;BME280;59323;50.874;7.028;2023-04-15T04:18:01;100388.56;;;4.44;84.99
71504;BME280;59323;50.874;7.028;2023-04-15T04:20:27;100382.72;;;4.42;84.94
71504;BME280;59323;50.874;7.028;2023-04-15T04:22:53;100393.94;;;4.44;85.25
71504;BME280;59323;50.874;7.028;2023-04-15T04:25:19;100388.88;;;4.43;85.02
71504;BME280;59323;50.874;7.028;2023-04-15T04:27:44;100396.94;;;4.43;84.85
71504;BME280;59323;50.874;7.028;2023-04-15T04:30:10;100397.16;;;4.38;84.92
71504;BME280;59323;50.874;7.028;2023-04-15T04:32:35;100400.63;;;4.38;84.62
71504;BME280;59323;50.874;7.028;2023-04-15T04:35:01;100406.34;;;4.37;85.24
71504;BME280;59323;50.874;7.028;2023-04-15T04:37:27;100404.78;;;4.36;85.08
71504;BME280;59323;50.874;7.028;2023-04-15T04:39:52;100407.22;;;4.29;84.78
71504;BME280;59323;50.874;7.028;2023-04-15T04:42:17;100407.22;;;4.29;85.19
71504;BME280;59323;50.874;7.028;2023-04-15T04:44:43;100413.38;;;4.29;84.82
71504;BME280;59323;50.874;7.028;2023-04-15T04:47:08;100418.16;;;4.24;85.52
71504;BME280;59323;50.874;7.028;2023-04-15T04:49:34;100420.84;;;4.24;85.68
71504;BME280;59323;50.874;7.028;2023-04-15T04:51:59;100425.31;;;4.20;85.61
71504;BME280;59323;50.874;7.028;2023-04-15T04:54:25;100427.56;;;4.18;85.43
71504;BME280;59323;50.874;7.028;2023-04-15T04:56:51;100426.75;;;4.17;85.88
71504;BME280;59323;50.874;7.028;2023-04-15T04:59:17;100438.63;;;4.16;86.65
71504;BME280;59323;50.874;7.028;2023-04-15T05:01:42;100443.22;;;4.16;86.04
71504;BME280;59323;50.874;7.028;2023-04-15T05:04:08;100438.84;;;4.11;85.62
71504;BME280;59323;50.874;7.028;2023-04-15T05:06:33;100432.53;;;4.07;86.04
71504;BME280;59323;50.874;7.028;2023-04-15T05:09:00;100425.59;;;4.06;86.44
71504;BME280;59323;50.874;7.028;2023-04-15T05:11:27;100439.50;;;4.08;86.39
71504;BME280;59323;50.874;7.028;2023-04-15T05:13:52;100439.16;;;4.09;86.06
71504;BME280;59323;50.874;7.028;2023-04-15T05:16:17;100440.72;;;4.10;86.64
71504;BME280;59323;50.874;7.028;2023-04-15T05:18:44;100450.38;;;4.11;86.28
71504;BME280;59323;50.874;7.028;2023-04-15T05:21:09;100445.31;;;4.10;86.35
71504;BME280;59323;50.874;7.028;2023-04-15T05:23:35;100437.13;;;4.06;86.24
71504;BME280;59323;50.874;7.028;2023-04-15T05:26:00;100448.81;;;4.10;86.11
71504;BME280;59323;50.874;7.028;2023-04-15T05:28:25;100451.16;;;4.12;86.11
71504;BME280;59323;50.874;7.028;2023-04-15T05:30:51;100445.47;;;4.13;86.06
71504;BME280;59323;50.874;7.028;2023-04-15T05:33:16;100451.88;;;4.21;86.70
71504;BME280;59323;50.874;7.028;2023-04-15T05:35:42;100439.81;;;4.27;86.24
71504;BME280;59323;50.874;7.028;2023-04-15T05:38:07;100441.78;;;4.39;86.93
71504;BME280;59323;50.874;7.028;2023-04-15T05:40:32;100440.38;;;4.54;86.25
71504;BME280;59323;50.874;7.028;2023-04-15T05:42:58;100445.50;;;4.67;85.95
71504;BME280;59323;50.874;7.028;2023-04-15T05:45:23;100460.69;;;4.84;85.88
71504;BME280;59323;50.874;7.028;2023-04-15T05:47:49;100486.22;;;5.11;85.90
71504;BME280;59323;50.874;7.028;2023-04-15T05:50:15;100483.91;;;5.22;85.91
71504;BME280;59323;50.874;7.028;2023-04-15T05:52:41;100483.81;;;5.30;85.52
71504;BME280;59323;50.874;7.028;2023-04-15T05:55:06;100487.75;;;5.45;85.77
71504;BME280;59323;50.874;7.028;2023-04-15T05:57:31;100496.97;;;5.56;85.47
71504;BME280;59323;50.874;7.028;2023-04-15T05:59:57;100502.38;;;5.68;85.59
71504;BME280;59323;50.874;7.028;2023-04-15T06:02:22;100490.59;;;5.85;86.07
71504;BME280;59323;50.874;7.028;2023-04-15T06:04:48;100488.13;;;6.04;85.75
71504;BME280;59323;50.874;7.028;2023-04-15T06:07:13;100496.28;;;6.32;85.63
71504;BME280;59323;50.874;7.028;2023-04-15T06:09:38;100506.78;;;6.50;84.52
71504;BME280;59323;50.874;7.028;2023-04-15T06:12:04;100510.16;;;6.59;83.76
71504;BME280;59323;50.874;7.028;2023-04-15T06:14:31;100506.97;;;6.69;83.50
71504;BME280;59323;50.874;7.028;2023-04-15T06:16:56;100507.72;;;6.82;83.93
71504;BME280;59323;50.874;7.028;2023-04-15T06:19:21;100500.06;;;6.84;82.53
71504;BME280;59323;50.874;7.028;2023-04-15T06:21:46;100502.69;;;6.96;81.84
71504;BME280;59323;50.874;7.028;2023-04-15T06:24:12;100517.81;;;7.13;81.85
71504;BME280;59323;50.874;7.028;2023-04-15T06:26:37;100519.16;;;7.19;81.19
71504;BME280;59323;50.874;7.028;2023-04-15T06:29:03;100513.50;;;7.24;80.02
71504;BME280;59323;50.874;7.028;2023-04-15T06:31:29;100516.38;;;7.31;79.90
71504;BME280;59323;50.874;7.028;2023-04-15T06:33:54;100515.78;;;7.38;79.86
71504;BME280;59323;50.874;7.028;2023-04-15T06:36:20;100519.88;;;7.47;80.20
71504;BME280;59323;50.874;7.028;2023-04-15T06:38:45;100532.78;;;7.54;79.82
71504;BME280;59323;50.874;7.028;2023-04-15T06:41:11;100525.63;;;7.61;79.63
71504;BME280;59323;50.874;7.028;2023-04-15T06:43:37;100523.63;;;7.74;79.22
71504;BME280;59323;50.874;7.028;2023-04-15T06:46:02;100528.59;;;7.88;79.02
71504;BME280;59323;50.874;7.028;2023-04-15T06:48:28;100528.34;;;7.93;78.04
71504;BME280;59323;50.874;7.028;2023-04-15T06:50:53;100527.88;;;8.07;78.13
71504;BME280;59323;50.874;7.028;2023-04-15T06:53:19;100537.88;;;8.22;77.72
71504;BME280;59323;50.874;7.028;2023-04-15T06:55:44;100536.72;;;8.39;76.94
71504;BME280;59323;50.874;7.028;2023-04-15T06:58:09;100528.44;;;8.47;76.19
71504;BME280;59323;50.874;7.028;2023-04-15T07:00:35;100538.72;;;8.57;74.76
71504;BME280;59323;50.874;7.028;2023-04-15T07:03:03;100548.63;;;8.69;74.58
71504;BME280;59323;50.874;7.028;2023-04-15T07:05:29;100547.53;;;8.93;74.95
71504;BME280;59323;50.874;7.028;2023-04-15T07:07:55;100555.16;;;9.26;72.44
71504;BME280;59323;50.874;7.028;2023-04-15T07:10:21;100552.41;;;9.45;71.54
71504;BME280;59323;50.874;7.028;2023-04-15T07:12:47;100555.06;;;9.65;72.27
71504;BME280;59323;50.874;7.028;2023-04-15T07:15:12;100546.56;;;9.89;71.80
71504;BME280;59323;50.874;7.028;2023-04-15T07:17:38;100547.78;;;10.18;70.92
71504;BME280;59323;50.874;7.028;2023-04-15T07:20:07;100550.63;;;10.52;70.78
71504;BME280;59323;50.874;7.028;2023-04-15T07:22:32;100571.63;;;10.85;70.16
71504;BME280;59323;50.874;7.028;2023-04-15T07:24:58;100562.75;;;11.21;69.92
71504;BME280;59323;50.874;7.028;2023-04-15T07:27:23;100567.53;;;11.35;67.17
71504;BME280;59323;50.874;7.028;2023-04-15T07:29:49;100568.88;;;11.52;67.82
71504;BME280;59323;50.874;7.028;2023-04-15T07:32:16;100569.03;;;11.69;65.85
71504;BME280;59323;50.874;7.028;2023-04-15T07:34:41;100570.03;;;11.88;65.74
71504;BME280;59323;50.874;7.028;2023-04-15T07:37:07;100575.25;;;12.11;65.53
71504;BME280;59323;50.874;7.028;2023-04-15T07:39:32;100571.47;;;12.29;64.86
71504;BME280;59323;50.874;7.028;2023-04-15T07:41:58;100578.22;;;12.46;64.07
71504;BME280;59323;50.874;7.028;2023-04-15T07:44:26;100568.50;;;12.49;63.65
71504;BME280;59323;50.874;7.028;2023-04-15T07:46:52;100567.63;;;12.34;61.93
71504;BME280;59323;50.874;7.028;2023-04-15T07:49:17;100565.97;;;12.19;62.84
71504;BME280;59323;50.874;7.028;2023-04-15T07:51:46;100578.50;;;12.34;63.62
71504;BME280;59323;50.874;7.028;2023-04-15T07:54:12;100585.53;;;12.35;62.01
71504;BME280;59323;50.874;7.028;2023-04-15T07:56:37;100574.69;;;12.38;62.87
71504;BME280;59323;50.874;7.028;2023-04-15T07:59:02;100580.22;;;12.53;61.19
71504;BME280;59323;50.874;7.028;2023-04-15T08:01:30;100585.34;;;12.65;61.66
71504;BME280;59323;50.874;7.028;2023-04-15T08:03:55;100590.50;;;12.88;62.32
71504;BME280;59323;50.874;7.028;2023-04-15T08:06:21;100590.97;;;13.04;60.05
71504;BME280;59323;50.874;7.028;2023-04-15T08:08:47;100589.38;;;12.99;59.93
71504;BME280;59323;50.874;7.028;2023-04-15T08:11:12;100593.31;;;13.02;59.02
71504;BME280;59323;50.874;7.028;2023-04-15T08:13:38;100582.81;;;13.04;59.57
71504;BME280;59323;50.874;7.028;2023-04-15T08:16:29;100602.28;;;13.02;57.43
71504;BME280;59323;50.874;7.028;2023-04-15T08:18:55;100603.78;;;12.93;56.89
71504;BME280;59323;50.874;7.028;2023-04-15T08:21:22;100603.78;;;12.93;58.07
71504;BME280;59323;50.874;7.028;2023-04-15T08:23:51;100606.94;;;13.02;58.43
71504;BME280;59323;50.874;7.028;2023-04-15T08:26:19;100612.47;;;13.16;57.14
71504;BME280;59323;50.874;7.028;2023-04-15T08:28:46;100606.66;;;13.25;57.11
71504;BME280;59323;50.874;7.028;2023-04-15T08:31:16;100603.19;;;13.39;57.01
71504;BME280;59323;50.874;7.028;2023-04-15T08:33:51;100606.34;;;13.55;55.15
71504;BME280;59323;50.874;7.028;2023-04-15T08:36:18;100604.81;;;13.64;54.39
71504;BME280;59323;50.874;7.028;2023-04-15T08:38:43;100605.63;;;13.69;53.00
71504;BME280;59323;50.874;7.028;2023-04-15T08:41:22;100620.44;;;13.75;54.15
71504;BME280;59323;50.874;7.028;2023-04-15T08:44:06;100612.66;;;13.80;54.30
71504;BME280;59323;50.874;7.028;2023-04-15T08:46:40;100620.84;;;13.73;53.69
71504;BME280;59323;50.874;7.028;2023-04-15T08:49:10;100612.59;;;13.62;52.08
71504;BME280;59323;50.874;7.028;2023-04-15T08:51:41;100627.41;;;13.58;52.16
71504;BME280;59323;50.874;7.028;2023-04-15T08:54:08;100618.78;;;13.38;51.14
71504;BME280;59323;50.874;7.028;2023-04-15T08:56:34;100644.91;;;13.32;51.34
71504;BME280;59323;50.874;7.028;2023-04-15T08:59:00;100633.16;;;13.21;49.77
71504;BME280;59323;50.874;7.028;2023-04-15T09:01:26;100636.28;;;13.19;52.12
71504;BME280;59323;50.874;7.028;2023-04-15T09:03:51;100632.41;;;13.27;52.80
71504;BME280;59323;50.874;7.028;2023-04-15T09:06:19;100634.41;;;13.45;53.89
71504;BME280;59323;50.874;7.028;2023-04-15T09:08:45;100632.09;;;13.61;51.81
71504;BME280;59323;50.874;7.028;2023-04-15T09:11:10;100635.28;;;13.77;53.27
71504;BME280;59323;50.874;7.028;2023-04-15T09:13:36;100637.22;;;13.80;51.08
71504;BME280;59323;50.874;7.028;2023-04-15T09:16:04;100642.31;;;13.96;51.59
71504;BME280;59323;50.874;7.028;2023-04-15T09:18:45;100639.59;;;13.96;49.42
71504;BME280;59323;50.874;7.028;2023-04-15T09:21:12;100641.94;;;14.15;47.06
71504;BME280;59323;50.874;7.028;2023-04-15T09:23:58;100661.44;;;14.14;47.38
71504;BME280;59323;50.874;7.028;2023-04-15T09:26:34;100655.97;;;14.07;49.55
71504;BME280;59323;50.874;7.028;2023-04-15T09:29:05;100656.75;;;14.04;51.01
71504;BME280;59323;50.874;7.028;2023-04-15T09:31:31;100667.31;;;14.09;50.12
71504;BME280;59323;50.874;7.028;2023-04-15T09:33:57;100659.09;;;14.16;49.43
71504;BME280;59323;50.874;7.028;2023-04-15T09:36:22;100664.56;;;14.30;49.43
71504;BME280;59323;50.874;7.028;2023-04-15T09:38:57;100668.88;;;14.20;47.84
71504;BME280;59323;50.874;7.028;2023-04-15T09:41:24;100677.06;;;14.24;50.56
71504;BME280;59323;50.874;7.028;2023-04-15T09:43:49;100678.25;;;14.16;47.62
71504;BME280;59323;50.874;7.028;2023-04-15T09:46:15;100677.06;;;14.13;49.43
71504;BME280;59323;50.874;7.028;2023-04-15T09:48:41;100682.97;;;14.51;47.75
71504;BME280;59323;50.874;7.028;2023-04-15T09:51:06;100683.31;;;14.78;46.68
71504;BME280;59323;50.874;7.028;2023-04-15T09:53:33;100684.47;;;14.87;50.02
71504;BME280;59323;50.874;7.028;2023-04-15T09:55:59;100689.16;;;14.94;48.68
71504;BME280;59323;50.874;7.028;2023-04-15T09:58:28;100687.19;;;14.95;47.47
71504;BME280;59323;50.874;7.028;2023-04-15T10:00:55;100679.03;;;14.77;47.37
71504;BME280;59323;50.874;7.028;2023-04-15T10:03:23;100686.47;;;14.73;47.63
71504;BME280;59323;50.874;7.028;2023-04-15T10:05:52;100696.22;;;14.74;50.36
71504;BME280;59323;50.874;7.028;2023-04-15T10:08:20;100695.03;;;15.00;46.52
71504;BME280;59323;50.874;7.028;2023-04-15T10:10:46;100688.38;;;14.83;45.76
71504;BME280;59323;50.874;7.028;2023-04-15T10:13:21;100697.81;;;14.64;45.87
71504;BME280;59323;50.874;7.028;2023-04-15T10:15:57;100693.44;;;14.95;49.05
71504;BME280;59323;50.874;7.028;2023-04-15T10:18:25;100702.03;;;15.11;47.41
71504;BME280;59323;50.874;7.028;2023-04-15T10:20:51;100703.25;;;14.96;47.96
71504;BME280;59323;50.874;7.028;2023-04-15T10:23:17;100699.31;;;14.94;48.68
71504;BME280;59323;50.874;7.028;2023-04-15T10:25:45;100710.19;;;15.22;48.22
71504;BME280;59323;50.874;7.028;2023-04-15T10:28:10;100701.16;;;15.36;46.92
71504;BME280;59323;50.874;7.028;2023-04-15T10:30:36;100703.09;;;15.42;48.88
71504;BME280;59323;50.874;7.028;2023-04-15T10:33:04;100706.19;;;15.62;47.54
71504;BME280;59323;50.874;7.028;2023-04-15T10:35:30;100708.41;;;15.81;47.85
71504;BME280;59323;50.874;7.028;2023-04-15T10:37:57;100706.00;;;15.91;49.57
71504;BME280;59323;50.874;7.028;2023-04-15T10:40:25;100718.38;;;16.16;47.15
71504;BME280;59323;50.874;7.028;2023-04-15T10:43:01;100715.56;;;16.24;49.64
71504;BME280;59323;50.874;7.028;2023-04-15T10:45:36;100714.91;;;16.05;48.28
71504;BME280;59323;50.874;7.028;2023-04-15T10:48:04;100727.50;;;15.96;47.79
71504;BME280;59323;50.874;7.028;2023-04-15T10:50:31;100724.47;;;15.79;49.03
71504;BME280;59323;50.874;7.028;2023-04-15T10:52:57;100732.31;;;15.77;50.30
71504;BME280;59323;50.874;7.028;2023-04-15T10:55:26;100727.28;;;15.65;50.04
71504;BME280;59323;50.874;7.028;2023-04-15T10:58:00;100722.59;;;15.55;48.42
71504;BME280;59323;50.874;7.028;2023-04-15T11:00:36;100726.53;;;15.47;51.05
71504;BME280;59323;50.874;7.028;2023-04-15T11:03:05;100733.22;;;15.39;49.99
71504;BME280;59323;50.874;7.028;2023-04-15T11:08:09;100732.00;;;15.47;48.80
71504;BME280;59323;50.874;7.028;2023-04-15T11:15:38;100735.06;;;15.74;50.05
71504;BME280;59323;50.874;7.028;2023-04-15T11:18:21;100732.78;;;15.65;47.02
71504;BME280;59323;50.874;7.028;2023-04-15T11:20:48;100734.75;;;15.43;48.38
71504;BME280;59323;50.874;7.028;2023-04-15T11:23:41;100739.47;;;15.43;49.88
71504;BME280;59323;50.874;7.028;2023-04-15T11:26:08;100741.81;;;15.37;49.37
71504;BME280;59323;50.874;7.028;2023-04-15T11:28:36;100752.81;;;15.27;51.72
71504;BME280;59323;50.874;7.028;2023-04-15T11:31:13;100754.03;;;15.08;50.57
71504;BME280;59323;50.874;7.028;2023-04-15T11:33:55;100758.72;;;14.89;50.89
71504;BME280;59323;50.874;7.028;2023-04-15T11:36:27;100756.03;;;14.68;52.36
71504;BME280;59323;50.874;7.028;2023-04-15T11:38:53;100764.22;;;14.54;52.18
71504;BME280;59323;50.874;7.028;2023-04-15T11:41:27;100756.03;;;14.54;52.62
71504;BME280;59323;50.874;7.028;2023-04-15T11:43:52;100762.63;;;14.39;53.14
71504;BME280;59323;50.874;7.028;2023-04-15T11:46:30;100767.72;;;14.40;52.30
71504;BME280;59323;50.874;7.028;2023-04-15T11:48:55;100781.41;;;14.47;52.24
71504;BME280;59323;50.874;7.028;2023-04-15T11:51:34;100775.13;;;14.40;54.14
71504;BME280;59323;50.874;7.028;2023-04-15T11:54:06;100783.75;;;14.49;53.28
71504;BME280;59323;50.874;7.028;2023-04-15T11:56:35;100785.31;;;14.43;52.92
71504;BME280;59323;50.874;7.028;2023-04-15T11:59:00;100796.22;;;14.36;53.17
71504;BME280;59323;50.874;7.028;2023-04-15T12:01:35;100795.47;;;14.42;52.51
71504;BME280;59323;50.874;7.028;2023-04-15T12:04:10;100802.41;;;14.29;54.25
71504;BME280;59323;50.874;7.028;2023-04-15T12:06:36;100798.88;;;14.18;55.88
71504;BME280;59323;50.874;7.028;2023-04-15T12:11:46;100810.94;;;13.99;55.40
71504;BME280;59323;50.874;7.028;2023-04-15T12:14:21;100814.78;;;13.87;54.72
71504;BME280;59323;50.874;7.028;2023-04-15T12:17:03;100805.75;;;13.73;56.96
71504;BME280;59323;50.874;7.028;2023-04-15T12:19:37;100821.38;;;13.72;55.95
71504;BME280;59323;50.874;7.028;2023-04-15T12:22:11;100819.66;;;13.46;57.15
71504;BME280;59323;50.874;7.028;2023-04-15T12:24:41;100816.00;;;13.21;57.90
71504;BME280;59323;50.874;7.028;2023-04-15T12:27:15;100829.53;;;13.10;58.42
71504;BME280;59323;50.874;7.028;2023-04-15T12:30:19;100825.91;;;12.99;59.45
71504;BME280;59323;50.874;7.028;2023-04-15T12:32:45;100827.41;;;12.89;59.63
71504;BME280;59323;50.874;7.028;2023-04-15T12:35:13;100846.81;;;12.81;59.87
71504;BME280;59323;50.874;7.028;2023-04-15T12:37:47;100854.97;;;12.77;60.56
71504;BME280;59323;50.874;7.028;2023-04-15T12:40:26;100860.00;;;12.75;61.22
71504;BME280;59323;50.874;7.028;2023-04-15T12:42:52;100852.13;;;12.66;60.92
71504;BME280;59323;50.874;7.028;2023-04-15T12:45:38;100860.69;;;12.65;61.61
71504;BME280;59323;50.874;7.028;2023-04-15T12:48:09;100866.00;;;12.51;61.98
71504;BME280;59323;50.874;7.028;2023-04-15T12:50:34;100876.50;;;12.49;61.89
71504;BME280;59323;50.874;7.028;2023-04-15T12:53:06;100867.34;;;12.34;63.51
71504;BME280;59323;50.874;7.028;2023-04-15T12:55:53;100878.25;;;12.34;64.02
71504;BME280;59323;50.874;7.028;2023-04-15T12:58:19;100891.63;;;12.43;63.31
71504;BME280;59323;50.874;7.028;2023-04-15T13:00:59;100890.78;;;12.38;62.69
71504;BME280;59323;50.874;7.028;2023-04-15T13:03:37;100894.53;;;12.27;64.15
71504;BME280;59323;50.874;7.028;2023-04-15T13:06:36;100894.41;;;12.16;64.48
71504;BME280;59323;50.874;7.028;2023-04-15T13:11:59;100909.53;;;12.14;64.21